createdAt,value
2022-10-16T00:02:25.447Z,99975.09
2022-10-16T00:04:53.269Z,99980.09
2022-10-16T00:07:21.065Z,99975.84
2022-10-16T00:09:49.012Z,99986.69
2022-10-16T00:12:16.775Z,99989.16
2022-10-16T00:14:44.962Z,99993.31
2022-10-16T00:17:14.072Z,99991.53
2022-10-16T00:19:42.116Z,99990.66
2022-10-16T00:22:28.355Z,99996.56
2022-10-16T00:24:56.420Z,99992.38
2022-10-16T00:27:24.282Z,99984.00
2022-10-16T00:29:52.757Z,99960.34
2022-10-16T00:32:22.983Z,99974.00
2022-10-16T00:34:50.884Z,99977.38
2022-10-16T00:37:18.696Z,99976.59
2022-10-16T00:39:46.500Z,99979.09
2022-10-16T00:42:17.577Z,99979.81
2022-10-16T00:44:57.697Z,99987.34
2022-10-16T00:47:31.089Z,99993.06
2022-10-16T00:50:04.161Z,99990.50
2022-10-16T00:52:32.244Z,100003.16
2022-10-16T00:55:00.787Z,100003.25
2022-10-16T00:57:28.821Z,100004.13
2022-10-16T00:59:56.936Z,100009.13
2022-10-16T01:02:24.918Z,100009.19
2022-10-16T01:04:56.065Z,100004.94
2022-10-16T01:07:36.830Z,100007.34
2022-10-16T01:10:13.987Z,100007.22
2022-10-16T01:12:47.994Z,100019.66
2022-10-16T01:15:23.725Z,100028.88
2022-10-16T01:17:59.243Z,100030.50
2022-10-16T01:20:32.037Z,100029.63
2022-10-16T01:23:17.041Z,100022.78
2022-10-16T01:26:02.085Z,100016.19
2022-10-16T01:28:38.729Z,100015.41
2022-10-16T01:31:07.433Z,100014.69
2022-10-16T01:33:42.019Z,100014.75
2022-10-16T01:36:13.844Z,100017.22
2022-10-16T01:38:43.331Z,100006.25
2022-10-16T01:41:14.923Z,100014.00
2022-10-16T01:43:48.420Z,100014.03
2022-10-16T01:46:20.391Z,100014.66
2022-10-16T01:48:48.928Z,100011.97
2022-10-16T01:51:19.036Z,100024.56
2022-10-16T01:53:51.141Z,100015.03
2022-10-16T01:56:21.359Z,100025.69
2022-10-16T01:58:54.573Z,100027.31
2022-10-16T02:01:25.293Z,100035.56
2022-10-16T02:03:56.274Z,100040.53
2022-10-16T02:06:24.403Z,100047.91
2022-10-16T02:08:52.265Z,100046.78
2022-10-16T02:11:20.039Z,100041.75
2022-10-16T02:13:54.680Z,100046.00
2022-10-16T02:16:22.527Z,100051.09
2022-10-16T02:18:50.656Z,100039.22
2022-10-16T02:21:25.504Z,100050.25
2022-10-16T02:24:00.497Z,100051.91
2022-10-16T02:26:33.249Z,100037.47
2022-10-16T02:29:08.406Z,100054.19
2022-10-16T02:31:42.971Z,100055.06
2022-10-16T02:34:13.177Z,100049.97
2022-10-16T02:36:42.869Z,100057.56
2022-10-16T02:39:11.650Z,100055.03
2022-10-16T02:41:40.354Z,100065.09
2022-10-16T02:44:09.492Z,100058.31
2022-10-16T02:46:37.250Z,100055.69
2022-10-16T02:49:05.461Z,100060.53
2022-10-16T02:51:33.246Z,100065.56
2022-10-16T02:54:00.992Z,100067.13
2022-10-16T02:56:28.769Z,100072.16
2022-10-16T02:58:56.521Z,100070.44
2022-10-16T03:01:25.891Z,100066.16
2022-10-16T03:03:53.784Z,100065.34
2022-10-16T03:06:21.593Z,100064.56
2022-10-16T03:08:49.379Z,100072.28
2022-10-16T03:11:17.189Z,100072.28
2022-10-16T03:13:45.066Z,100069.09
2022-10-16T03:16:13.006Z,100064.19
2022-10-16T03:18:42.140Z,100071.75
2022-10-16T03:21:09.990Z,100071.84
2022-10-16T03:23:37.761Z,100078.66
2022-10-16T03:26:05.656Z,100075.19
2022-10-16T03:28:33.624Z,100081.78
2022-10-16T03:31:01.446Z,100084.22
2022-10-16T03:33:29.379Z,100080.97
2022-10-16T03:35:58.507Z,100085.13
2022-10-16T03:38:26.347Z,100073.44
2022-10-16T03:40:54.386Z,100073.53
2022-10-16T03:43:22.251Z,100080.25
2022-10-16T03:45:51.895Z,100073.63
2022-10-16T03:48:19.755Z,100079.56
2022-10-16T03:50:48.977Z,100067.88
2022-10-16T03:53:18.142Z,100081.28
2022-10-16T03:55:46.168Z,100087.06
2022-10-16T03:58:14.065Z,100097.97
2022-10-16T04:00:42.804Z,100099.53
2022-10-16T04:03:10.952Z,100098.72
2022-10-16T04:05:38.778Z,100099.53
2022-10-16T04:08:06.708Z,100102.91
2022-10-16T04:10:35.850Z,100102.06
2022-10-16T04:13:03.912Z,100109.66
2022-10-16T04:15:31.836Z,100111.31
2022-10-16T04:17:59.607Z,100109.56
2022-10-16T04:20:27.389Z,100103.56
2022-10-16T04:22:55.237Z,100109.34
2022-10-16T04:25:23.022Z,100099.19
2022-10-16T04:27:54.337Z,100095.75
2022-10-16T04:30:22.443Z,100106.69
2022-10-16T04:32:50.906Z,100110.91
2022-10-16T04:35:19.317Z,100104.13
2022-10-16T04:37:47.291Z,100099.91
2022-10-16T04:40:15.906Z,100089.81
2022-10-16T04:42:43.711Z,100087.41
2022-10-16T04:45:16.293Z,100093.28
2022-10-16T04:47:45.029Z,100083.19
2022-10-16T04:50:12.820Z,100088.44
2022-10-16T04:52:40.644Z,100093.59
2022-10-16T04:55:09.401Z,100098.97
2022-10-16T04:57:37.242Z,100104.84
2022-10-16T05:00:05.689Z,100102.44
2022-10-16T05:02:34.839Z,100112.69
2022-10-16T05:05:02.853Z,100118.59
2022-10-16T05:07:30.615Z,100122.28
2022-10-16T05:09:58.939Z,100131.91
2022-10-16T05:12:26.769Z,100141.97
2022-10-16T05:14:59.273Z,100141.00
2022-10-16T05:17:27.446Z,100146.59
2022-10-16T05:19:57.009Z,100143.09
2022-10-16T05:22:24.910Z,100138.75
2022-10-16T05:24:52.954Z,100152.22
2022-10-16T05:27:20.748Z,100153.84
2022-10-16T05:29:49.657Z,100157.09
2022-10-16T05:32:18.368Z,100165.34
2022-10-16T05:34:46.978Z,100171.22
2022-10-16T05:37:16.121Z,100177.06
2022-10-16T05:39:43.872Z,100182.19
2022-10-16T05:42:11.656Z,100178.97
2022-10-16T05:44:39.459Z,100175.75
2022-10-16T05:47:07.256Z,100182.72
2022-10-16T05:49:41.305Z,100198.06
2022-10-16T05:52:15.344Z,100180.63
2022-10-16T05:54:46.973Z,100174.84
2022-10-16T05:57:14.798Z,100178.25
2022-10-16T05:59:42.811Z,100172.41
2022-10-16T06:02:14.830Z,100179.34
2022-10-16T06:04:42.689Z,100187.13
2022-10-16T06:07:10.550Z,100183.94
2022-10-16T06:09:38.405Z,100186.78
2022-10-16T06:12:07.606Z,100192.16
2022-10-16T06:14:35.491Z,100195.84
2022-10-16T06:17:03.404Z,100189.38
2022-10-16T06:19:32.417Z,100190.41
2022-10-16T06:22:00.197Z,100186.41
2022-10-16T06:24:28.144Z,100194.09
2022-10-16T06:26:56.171Z,100194.28
2022-10-16T06:29:26.884Z,100196.84
2022-10-16T06:31:54.899Z,100201.94
2022-10-16T06:34:22.708Z,100206.13
2022-10-16T06:36:50.493Z,100212.75
2022-10-16T06:39:18.260Z,100220.94
2022-10-16T06:41:46.032Z,100227.44
2022-10-16T06:44:17.235Z,100233.28
2022-10-16T06:46:46.428Z,100228.22
2022-10-16T06:49:14.376Z,100224.81
2022-10-16T06:51:43.451Z,100222.34
2022-10-16T06:54:11.720Z,100231.72
2022-10-16T06:56:39.532Z,100242.78
2022-10-16T06:59:07.338Z,100253.72
2022-10-16T07:01:35.343Z,100248.66
2022-10-16T07:04:04.827Z,100249.34
2022-10-16T07:06:34.061Z,100251.88
2022-10-16T07:09:04.966Z,100251.03
2022-10-16T07:11:33.076Z,100254.41
2022-10-16T07:14:01.338Z,100269.66
2022-10-16T07:16:31.514Z,100272.25
2022-10-16T07:19:02.127Z,100266.50
2022-10-16T07:21:36.311Z,100271.56
2022-10-16T07:24:04.883Z,100269.28
2022-10-16T07:26:35.396Z,100260.28
2022-10-16T07:29:04.395Z,100256.22
2022-10-16T07:31:32.377Z,100258.78
2022-10-16T07:34:01.095Z,100273.22
2022-10-16T07:36:29.443Z,100263.16
2022-10-16T07:39:00.292Z,100268.34
2022-10-16T07:41:29.401Z,100271.00
2022-10-16T07:44:01.118Z,100276.97
2022-10-16T07:46:29.536Z,100278.56
2022-10-16T07:48:57.357Z,100276.91
2022-10-16T07:51:26.930Z,100277.88
2022-10-16T07:53:55.208Z,100279.78
2022-10-16T07:56:24.586Z,100279.06
2022-10-16T07:58:53.246Z,100287.56
2022-10-16T08:01:21.390Z,100286.66
2022-10-16T08:03:50.953Z,100292.53
2022-10-16T08:06:23.525Z,100291.78
2022-10-16T08:08:54.772Z,100288.50
2022-10-16T08:11:24.346Z,100294.44
2022-10-16T08:13:52.181Z,100289.41
2022-10-16T08:16:19.991Z,100283.41
2022-10-16T08:18:48.200Z,100289.34
2022-10-16T08:21:20.475Z,100301.97
2022-10-16T08:23:54.533Z,100297.69
2022-10-16T08:26:28.288Z,100293.44
2022-10-16T08:28:56.342Z,100302.75
2022-10-16T08:31:24.640Z,100297.56
2022-10-16T08:33:53.273Z,100313.72
2022-10-16T08:36:21.349Z,100325.69
2022-10-16T08:38:50.685Z,100326.63
2022-10-16T08:41:38.137Z,100304.63
2022-10-16T08:44:30.720Z,100332.78
2022-10-16T08:47:06.849Z,100338.06
2022-10-16T08:49:34.774Z,100333.91
2022-10-16T08:52:02.640Z,100332.25
2022-10-16T08:54:35.613Z,100343.31
2022-10-16T08:57:13.110Z,100340.72
2022-10-16T08:59:40.904Z,100333.13
2022-10-16T09:02:26.291Z,100340.75
2022-10-16T09:05:18.936Z,100334.13
2022-10-16T09:10:48.118Z,100340.28
2022-10-16T09:13:25.474Z,100332.69
2022-10-16T09:16:00.742Z,100332.75
2022-10-16T09:18:36.754Z,100335.38
2022-10-16T09:21:12.974Z,100339.75
2022-10-16T09:23:40.847Z,100333.03
2022-10-16T09:26:13.864Z,100337.41
2022-10-16T09:28:43.916Z,100329.03
2022-10-16T09:31:18.387Z,100325.63
2022-10-16T09:33:49.313Z,100324.63
2022-10-16T09:36:17.384Z,100339.75
2022-10-16T09:38:45.175Z,100341.34
2022-10-16T09:41:19.813Z,100336.19
2022-10-16T09:43:56.703Z,100328.53
2022-10-16T09:46:29.512Z,100328.53
2022-10-16T09:48:59.781Z,100322.63
2022-10-16T09:51:30.379Z,100330.28
2022-10-16T09:54:01.100Z,100332.00
2022-10-16T09:56:30.837Z,100335.44
2022-10-16T09:59:01.824Z,100340.56
2022-10-16T10:01:37.192Z,100344.91
2022-10-16T10:04:05.556Z,100342.44
2022-10-16T10:06:38.851Z,100345.13
2022-10-16T10:09:16.183Z,100338.59
2022-10-16T10:11:55.819Z,100332.81
2022-10-16T10:14:28.951Z,100339.59
2022-10-16T10:17:12.721Z,100347.28
2022-10-16T10:19:41.989Z,100336.31
2022-10-16T10:22:21.482Z,100338.13
2022-10-16T10:24:58.107Z,100325.53
2022-10-16T10:27:33.822Z,100340.81
2022-10-16T10:30:08.499Z,100344.22
2022-10-16T10:32:46.002Z,100340.00
2022-10-16T10:35:20.966Z,100338.34
2022-10-16T10:38:01.634Z,100339.22
2022-10-16T10:40:39.986Z,100340.91
2022-10-16T10:43:17.060Z,100343.44
2022-10-16T10:45:49.053Z,100331.63
2022-10-16T10:48:30.082Z,100340.94
2022-10-16T10:51:02.713Z,100344.31
2022-10-16T10:53:43.261Z,100335.03
2022-10-16T10:56:25.132Z,100336.69
2022-10-16T10:59:10.900Z,100344.31
2022-10-16T11:01:50.515Z,100344.31
2022-10-16T11:04:48.309Z,100350.25
2022-10-16T11:07:21.936Z,100345.19
2022-10-16T11:09:54.605Z,100336.75
2022-10-16T11:12:25.382Z,100341.84
2022-10-16T11:15:00.508Z,100336.75
2022-10-16T11:17:34.088Z,100337.63
2022-10-16T11:20:13.782Z,100343.53
2022-10-16T11:22:46.005Z,100346.09
2022-10-16T11:25:16.985Z,100341.84
2022-10-16T11:27:49.557Z,100341.03
2022-10-16T11:30:22.101Z,100339.34
2022-10-16T11:33:04.781Z,100338.47
2022-10-16T11:35:41.998Z,100338.47
2022-10-16T11:38:17.191Z,100346.94
2022-10-16T11:40:49.584Z,100346.06
2022-10-16T11:43:23.948Z,100347.78
2022-10-16T11:45:54.593Z,100345.25
2022-10-16T11:48:29.500Z,100329.16
2022-10-16T11:51:04.510Z,100331.69
2022-10-16T11:53:44.589Z,100340.16
2022-10-16T11:56:15.654Z,100333.41
2022-10-16T11:58:52.558Z,100333.38
2022-10-16T12:01:29.195Z,100335.91
2022-10-16T12:04:08.346Z,100335.06
2022-10-16T12:06:42.713Z,100329.94
2022-10-16T12:09:17.350Z,100328.25
2022-10-16T12:11:45.248Z,100329.94
2022-10-16T12:14:51.731Z,100328.28
2022-10-16T12:17:28.515Z,100335.03
2022-10-16T12:20:02.685Z,100338.44
2022-10-16T12:22:32.320Z,100333.38
2022-10-16T12:25:00.564Z,100331.72
2022-10-16T12:27:31.949Z,100336.78
2022-10-16T12:30:02.254Z,100328.31
2022-10-16T12:32:46.357Z,100336.78
2022-10-16T12:35:23.914Z,100324.06
2022-10-16T12:37:53.217Z,100326.63
2022-10-16T12:40:30.418Z,100323.25
2022-10-16T12:42:58.589Z,100318.97
2022-10-16T12:45:32.192Z,100326.59
2022-10-16T12:48:02.289Z,100329.94
2022-10-16T12:50:35.151Z,100321.50
2022-10-16T12:53:05.849Z,100322.31
2022-10-16T12:55:45.399Z,100315.53
2022-10-16T12:58:33.083Z,100321.41
2022-10-16T13:01:13.031Z,100323.88
2022-10-16T13:04:11.541Z,100333.09
2022-10-16T13:06:48.834Z,100327.06
2022-10-16T13:09:32.429Z,100329.50
2022-10-16T13:12:17.861Z,100333.63
2022-10-16T13:15:04.043Z,100321.63
2022-10-16T13:17:39.752Z,100324.91
2022-10-16T13:20:20.405Z,100327.38
2022-10-16T13:22:57.862Z,100333.56
2022-10-16T13:25:37.230Z,100343.06
2022-10-16T13:28:07.413Z,100336.28
2022-10-16T13:30:40.683Z,100335.50
2022-10-16T13:33:15.244Z,100333.00
2022-10-16T13:35:51.741Z,100339.84
2022-10-16T13:38:23.575Z,100339.88
2022-10-16T13:40:54.483Z,100346.78
2022-10-16T13:43:26.855Z,100340.94
2022-10-16T13:45:57.020Z,100340.13
2022-10-16T13:48:25.141Z,100337.59
2022-10-16T13:51:17.779Z,100331.72
2022-10-16T13:53:47.959Z,100336.78
2022-10-16T13:56:18.302Z,100343.56
2022-10-16T13:58:46.708Z,100352.88
2022-10-16T14:01:20.152Z,100343.53
2022-10-16T14:03:49.385Z,100340.16
2022-10-16T14:06:22.936Z,100343.53
2022-10-16T14:09:01.037Z,100346.94
2022-10-16T14:11:29.181Z,100349.47
2022-10-16T14:13:57.600Z,100343.53
2022-10-16T14:16:27.737Z,100351.13
2022-10-16T14:19:00.144Z,100357.88
2022-10-16T14:21:28.620Z,100364.59
2022-10-16T14:23:58.408Z,100361.13
2022-10-16T14:26:28.971Z,100361.03
2022-10-16T14:29:12.270Z,100357.59
2022-10-16T14:31:42.171Z,100363.44
2022-10-16T14:34:26.437Z,100359.94
2022-10-16T14:36:54.279Z,100365.00
2022-10-16T14:39:25.905Z,100358.09
2022-10-16T14:41:54.702Z,100356.34
2022-10-16T14:44:28.575Z,100361.63
2022-10-16T14:46:56.686Z,100368.63
2022-10-16T14:49:28.938Z,100367.06
2022-10-16T14:51:57.476Z,100372.22
2022-10-16T14:54:26.749Z,100368.03
2022-10-16T14:56:56.470Z,100365.50
2022-10-16T14:59:30.284Z,100368.94
2022-10-16T15:01:58.270Z,100367.25
2022-10-16T15:04:28.316Z,100381.63
2022-10-16T15:06:56.127Z,100386.69
2022-10-16T15:09:24.253Z,100383.25
2022-10-16T15:11:53.489Z,100382.34
2022-10-16T15:14:21.404Z,100379.78
2022-10-16T15:16:49.184Z,100387.31
2022-10-16T15:19:17.248Z,100377.13
2022-10-16T15:21:45.286Z,100383.81
2022-10-16T15:24:18.028Z,100382.06
2022-10-16T15:26:49.777Z,100387.06
2022-10-16T15:29:19.189Z,100387.06
2022-10-16T15:31:49.513Z,100378.53
2022-10-16T15:34:19.246Z,100395.41
2022-10-16T15:36:51.770Z,100403.91
2022-10-16T15:39:21.139Z,100403.06
2022-10-16T15:41:52.210Z,100408.13
2022-10-16T15:44:23.881Z,100405.56
2022-10-16T15:46:51.674Z,100414.00
2022-10-16T15:49:19.535Z,100415.63
2022-10-16T15:51:47.751Z,100415.53
2022-10-16T15:54:16.173Z,100421.41
2022-10-16T15:56:43.966Z,100418.81
2022-10-16T15:59:11.757Z,100417.91
2022-10-16T16:01:41.576Z,100411.09
2022-10-16T16:04:15.232Z,100428.81
2022-10-16T16:06:45.736Z,100427.97
2022-10-16T16:09:14.456Z,100429.63
2022-10-16T16:11:43.187Z,100431.25
2022-10-16T16:14:13.816Z,100437.91
2022-10-16T16:16:45.073Z,100435.22
2022-10-16T16:19:12.877Z,100440.28
2022-10-16T16:21:42.564Z,100443.59
2022-10-16T16:24:10.461Z,100450.28
2022-10-16T16:26:40.815Z,100454.41
2022-10-16T16:29:09.054Z,100447.56
2022-10-16T16:31:36.883Z,100463.59
2022-10-16T16:34:06.204Z,100460.13
2022-10-16T16:36:34.511Z,100472.78
2022-10-16T16:39:02.573Z,100476.97
2022-10-16T16:41:31.818Z,100474.34
2022-10-16T16:44:05.131Z,100481.03
2022-10-16T16:46:34.042Z,100474.25
2022-10-16T16:49:02.848Z,100474.25
2022-10-16T16:51:39.812Z,100480.09
2022-10-16T16:54:09.871Z,100481.72
2022-10-16T16:56:43.410Z,100482.53
2022-10-16T16:59:14.782Z,100484.19
2022-10-16T17:01:43.064Z,100490.06
2022-10-16T17:04:12.439Z,100483.25
2022-10-16T17:06:42.250Z,100489.97
2022-10-16T17:09:13.682Z,100489.03
2022-10-16T17:11:43.884Z,100482.25
2022-10-16T17:14:11.728Z,100478.78
2022-10-16T17:16:40.935Z,100477.09
2022-10-16T17:19:12.522Z,100484.63
2022-10-16T17:21:42.645Z,100494.69
2022-10-16T17:24:11.357Z,100493.69
2022-10-16T17:26:41.486Z,100504.53
2022-10-16T17:29:12.478Z,100509.41
2022-10-16T17:31:41.457Z,100513.44
2022-10-16T17:34:14.261Z,100509.88
2022-10-16T17:36:46.797Z,100516.41
2022-10-16T17:39:18.043Z,100517.91
2022-10-16T17:41:46.652Z,100514.53
2022-10-16T17:44:19.829Z,100518.78
2022-10-16T17:46:48.839Z,100522.06
2022-10-16T17:49:17.703Z,100521.81
2022-10-16T17:51:47.213Z,100538.41
2022-10-16T17:54:15.507Z,100547.50
2022-10-16T17:56:43.612Z,100538.97
2022-10-16T17:59:12.751Z,100553.09
2022-10-16T18:01:42.170Z,100551.16
2022-10-16T18:04:13.084Z,100560.19
2022-10-16T18:06:42.827Z,100575.09
2022-10-16T18:09:14.092Z,100579.19
2022-10-16T18:11:41.972Z,100588.41
2022-10-16T18:14:10.138Z,100584.91
2022-10-16T18:16:39.514Z,100589.19
2022-10-16T18:19:07.372Z,100591.69
2022-10-16T18:21:35.465Z,100605.16
2022-10-16T18:24:03.342Z,100609.19
2022-10-16T18:26:32.929Z,100616.69
2022-10-16T18:29:02.236Z,100628.50
2022-10-16T18:31:30.529Z,100623.38
2022-10-16T18:33:58.986Z,100618.22
2022-10-16T18:36:29.910Z,100625.03
2022-10-16T18:38:58.417Z,100622.56
2022-10-16T18:41:27.279Z,100624.19
2022-10-16T18:43:57.258Z,100632.38
2022-10-16T18:46:26.465Z,100621.41
2022-10-16T18:48:54.437Z,100633.47
2022-10-16T18:51:24.935Z,100635.19
2022-10-16T18:53:55.376Z,100631.88
2022-10-16T18:56:24.508Z,100622.56
2022-10-16T18:58:53.509Z,100636.00
2022-10-16T19:01:25.144Z,100635.16
2022-10-16T19:03:56.883Z,100631.97
2022-10-16T19:06:25.223Z,100626.31
2022-10-16T19:08:54.292Z,100633.97
2022-10-16T19:11:23.810Z,100636.22
2022-10-16T19:13:52.575Z,100627.03
2022-10-16T19:16:23.685Z,100622.69
2022-10-16T19:18:53.251Z,100633.06
2022-10-16T19:21:21.828Z,100639.72
2022-10-16T19:23:52.710Z,100656.16
2022-10-16T19:26:22.821Z,100639.72
2022-10-16T19:28:53.207Z,100650.84
2022-10-16T19:31:24.595Z,100661.00
2022-10-16T19:33:53.728Z,100655.88
2022-10-16T19:36:24.085Z,100658.19
2022-10-16T19:38:54.952Z,100663.03
2022-10-16T19:41:23.623Z,100659.50
2022-10-16T19:43:52.135Z,100664.25
2022-10-16T19:46:24.973Z,100672.50
2022-10-16T19:48:56.465Z,100663.13
2022-10-16T19:51:25.832Z,100662.97
2022-10-16T19:53:56.359Z,100664.44
2022-10-16T19:56:26.257Z,100674.31
2022-10-16T19:58:55.416Z,100673.44
2022-10-16T20:01:25.866Z,100676.13
2022-10-16T20:03:53.986Z,100666.09
2022-10-16T20:06:22.416Z,100677.28
2022-10-16T20:08:52.486Z,100681.50
2022-10-16T20:11:21.878Z,100687.38
2022-10-16T20:13:49.956Z,100694.69
2022-10-16T20:16:19.852Z,100693.72
2022-10-16T20:18:50.468Z,100702.00
2022-10-16T20:21:20.651Z,100704.19
2022-10-16T20:23:50.300Z,100714.97
2022-10-16T20:26:21.023Z,100717.28
2022-10-16T20:28:49.448Z,100717.03
2022-10-16T20:31:22.268Z,100724.38
2022-10-16T20:33:52.440Z,100720.22
2022-10-16T20:36:21.913Z,100701.53
2022-10-16T20:38:49.990Z,100715.13
2022-10-16T20:41:18.889Z,100717.53
2022-10-16T20:43:48.701Z,100717.38
2022-10-16T20:46:18.662Z,100719.25
2022-10-16T20:48:47.743Z,100713.41
2022-10-16T20:51:19.509Z,100726.91
2022-10-16T20:53:49.033Z,100728.59
2022-10-16T20:56:17.550Z,100728.50
2022-10-16T20:58:46.434Z,100742.22
2022-10-16T21:01:16.745Z,100744.78
2022-10-16T21:03:45.632Z,100741.47
2022-10-16T21:06:13.416Z,100743.84
2022-10-16T21:08:43.999Z,100736.00
2022-10-16T21:11:13.398Z,100748.41
2022-10-16T21:13:41.545Z,100743.91
2022-10-16T21:16:10.533Z,100748.16
2022-10-16T21:18:42.033Z,100739.69
2022-10-16T21:21:19.746Z,100749.81
2022-10-16T21:23:49.441Z,100759.88
2022-10-16T21:26:18.303Z,100756.28
2022-10-16T21:28:46.461Z,100762.13
2022-10-16T21:31:19.900Z,100760.56
2022-10-16T21:33:48.292Z,100770.78
2022-10-16T21:36:17.740Z,100770.16
2022-10-16T21:41:18.457Z,100769.28
2022-10-16T21:43:46.412Z,100771.00
2022-10-16T21:46:14.969Z,100773.72
2022-10-16T21:48:43.598Z,100764.53
2022-10-16T21:51:12.512Z,100780.63
2022-10-16T21:53:41.362Z,100765.56
2022-10-16T21:56:13.868Z,100768.66
2022-10-16T21:58:44.121Z,100765.47
2022-10-16T22:01:13.707Z,100776.38
2022-10-16T22:03:41.496Z,100775.53
2022-10-16T22:06:10.598Z,100777.69
2022-10-16T22:08:39.480Z,100785.66
2022-10-16T22:11:10.013Z,100780.22
2022-10-16T22:13:38.340Z,100786.03
2022-10-16T22:16:08.616Z,100782.44
2022-10-16T22:18:36.849Z,100772.06
2022-10-16T22:21:06.049Z,100783.75
2022-10-16T22:23:33.906Z,100788.69
2022-10-16T22:26:02.368Z,100783.66
2022-10-16T22:28:30.203Z,100796.97
2022-10-16T22:31:01.785Z,100795.13
2022-10-16T22:33:30.948Z,100798.41
2022-10-16T22:36:01.310Z,100794.97
2022-10-16T22:38:30.014Z,100794.06
2022-10-16T22:41:02.547Z,100803.25
2022-10-16T22:43:30.329Z,100791.47
2022-10-16T22:46:03.516Z,100799.78
2022-10-16T22:48:32.682Z,100803.09
2022-10-16T22:51:00.596Z,100798.81
2022-10-16T22:53:28.628Z,100806.28
2022-10-16T22:55:56.428Z,100809.72
2022-10-16T22:58:24.217Z,100810.56
2022-10-16T23:00:52.432Z,100802.75
2022-10-16T23:03:20.452Z,100809.59
2022-10-16T23:05:49.676Z,100813.78
2022-10-16T23:08:17.664Z,100815.47
2022-10-16T23:10:47.043Z,100825.59
2022-10-16T23:13:15.382Z,100829.81
2022-10-16T23:15:45.236Z,100833.13
2022-10-16T23:18:13.236Z,100824.63
2022-10-16T23:20:41.694Z,100822.16
2022-10-16T23:23:11.413Z,100819.28
2022-10-16T23:25:46.989Z,100803.53
2022-10-16T23:30:47.936Z,100820.19
2022-10-16T23:33:15.689Z,100821.16
2022-10-16T23:35:43.519Z,100801.78
2022-10-16T23:38:12.656Z,100814.22
2022-10-16T23:40:40.393Z,100816.94
2022-10-16T23:43:08.367Z,100814.53
2022-10-16T23:45:36.140Z,100818.59
2022-10-16T23:48:03.936Z,100819.88
2022-10-16T23:50:31.761Z,100825.34
2022-10-16T23:52:59.511Z,100823.56
2022-10-16T23:55:28.776Z,100829.22
2022-10-16T23:57:56.666Z,100840.59
